createdAt,value
2017-12-06T00:01:40.578Z,86.75
2017-12-06T00:04:08.092Z,85.85
2017-12-06T00:06:35.594Z,85.89
2017-12-06T00:09:03.091Z,85.85
2017-12-06T00:11:30.609Z,85.44
2017-12-06T00:14:03.710Z,86.37
2017-12-06T00:16:31.222Z,87.27
2017-12-06T00:18:58.729Z,86.28
2017-12-06T00:21:26.220Z,85.80
2017-12-06T00:23:53.712Z,85.97
2017-12-06T00:26:21.330Z,85.91
2017-12-06T00:28:48.821Z,86.86
2017-12-06T00:31:16.306Z,86.48
2017-12-06T00:33:43.806Z,86.28
2017-12-06T00:36:11.288Z,86.58
2017-12-06T00:38:38.777Z,85.73
2017-12-06T00:41:06.269Z,85.93
2017-12-06T00:43:33.752Z,86.17
2017-12-06T00:46:01.306Z,86.02
2017-12-06T00:48:28.788Z,86.03
2017-12-06T00:50:56.291Z,85.73
2017-12-06T00:53:23.831Z,85.94
2017-12-06T00:55:51.328Z,85.97
2017-12-06T00:58:18.838Z,85.80
2017-12-06T01:00:46.337Z,86.14
2017-12-06T01:03:13.833Z,87.08
2017-12-06T01:05:41.351Z,85.65
2017-12-06T01:08:08.870Z,84.92
2017-12-06T01:10:36.393Z,85.07
2017-12-06T01:13:03.881Z,84.47
2017-12-06T01:15:31.373Z,84.23
2017-12-06T01:17:58.887Z,84.01
2017-12-06T01:20:26.390Z,84.96
2017-12-06T01:22:54.084Z,86.05
2017-12-06T01:25:21.593Z,86.06
2017-12-06T01:27:49.092Z,85.46
2017-12-06T01:30:16.626Z,84.60
2017-12-06T01:32:44.125Z,84.18
2017-12-06T01:35:11.617Z,84.33
2017-12-06T01:37:39.167Z,84.63
2017-12-06T01:40:06.672Z,85.31
2017-12-06T01:42:34.179Z,86.13
2017-12-06T01:45:01.678Z,85.30
2017-12-06T01:47:29.192Z,84.26
2017-12-06T01:49:56.693Z,83.74
2017-12-06T01:52:24.191Z,84.03
2017-12-06T01:54:51.694Z,85.12
2017-12-06T01:57:19.224Z,85.25
2017-12-06T01:59:46.715Z,84.48
2017-12-06T02:02:14.224Z,84.38
2017-12-06T02:04:41.738Z,84.51
2017-12-06T02:07:09.238Z,85.32
2017-12-06T02:09:36.737Z,86.04
2017-12-06T02:12:04.251Z,85.25
2017-12-06T02:14:31.745Z,84.91
2017-12-06T02:16:59.247Z,84.44
2017-12-06T02:19:26.736Z,83.70
2017-12-06T02:21:54.230Z,83.20
2017-12-06T02:24:21.724Z,82.95
2017-12-06T02:26:49.242Z,82.91
2017-12-06T02:29:16.742Z,84.59
2017-12-06T02:31:44.243Z,83.93
2017-12-06T02:34:11.742Z,83.93
2017-12-06T02:36:39.259Z,87.71
2017-12-06T02:39:06.756Z,87.83
2017-12-06T02:41:46.120Z,87.01
2017-12-06T02:44:25.507Z,86.87
2017-12-06T02:46:53.006Z,86.52
2017-12-06T02:49:20.508Z,85.06
2017-12-06T02:51:48.023Z,84.36
2017-12-06T02:54:15.543Z,84.29
2017-12-06T02:56:43.053Z,82.67
2017-12-06T02:59:10.580Z,82.83
2017-12-06T03:01:38.112Z,82.97
2017-12-06T03:04:05.611Z,82.96
2017-12-06T03:06:33.113Z,84.05
2017-12-06T03:09:00.597Z,85.44
2017-12-06T03:11:28.096Z,86.68
2017-12-06T03:13:55.586Z,89.01
2017-12-06T03:16:23.563Z,90.74
2017-12-06T03:18:51.056Z,88.97
2017-12-06T03:21:18.570Z,87.36
2017-12-06T03:23:46.077Z,86.45
2017-12-06T03:26:13.606Z,88.55
2017-12-06T03:28:41.095Z,88.24
2017-12-06T03:31:08.614Z,88.77
2017-12-06T03:33:36.136Z,87.90
2017-12-06T03:36:03.633Z,88.71
2017-12-06T03:38:31.167Z,86.73
2017-12-06T03:40:58.665Z,87.38
2017-12-06T03:43:26.165Z,88.41
2017-12-06T03:45:53.661Z,87.23
2017-12-06T03:48:21.150Z,85.48
2017-12-06T03:50:48.642Z,87.89
2017-12-06T03:53:16.158Z,90.26
2017-12-06T03:55:43.649Z,89.21
2017-12-06T03:58:11.166Z,87.77
2017-12-06T04:00:38.659Z,87.13
2017-12-06T04:03:06.140Z,85.86
2017-12-06T04:05:33.620Z,85.86
2017-12-06T04:08:01.112Z,85.96
2017-12-06T04:10:28.614Z,86.27
2017-12-06T04:12:56.100Z,87.37
2017-12-06T04:15:23.591Z,86.81
2017-12-06T04:17:51.173Z,86.87
2017-12-06T04:20:18.672Z,90.39
2017-12-06T04:22:46.168Z,91.94
2017-12-06T04:25:13.653Z,91.32
2017-12-06T04:27:41.141Z,90.42
2017-12-06T04:30:08.656Z,90.75
2017-12-06T04:32:36.159Z,88.62
2017-12-06T04:35:03.654Z,86.50
2017-12-06T04:37:31.149Z,86.34
2017-12-06T04:39:58.648Z,86.04
2017-12-06T04:42:26.137Z,88.52
2017-12-06T04:44:53.617Z,90.46
2017-12-06T04:47:21.122Z,92.05
2017-12-06T04:49:48.625Z,91.79
2017-12-06T04:52:16.139Z,89.46
2017-12-06T04:54:43.642Z,88.71
2017-12-06T04:57:11.163Z,87.26
2017-12-06T04:59:38.665Z,87.49
2017-12-06T05:02:06.159Z,90.08
2017-12-06T05:04:33.646Z,90.04
2017-12-06T05:07:01.124Z,90.38
2017-12-06T05:09:28.623Z,89.32
2017-12-06T05:11:56.108Z,90.78
2017-12-06T05:14:23.609Z,90.71
2017-12-06T05:16:51.135Z,89.86
2017-12-06T05:19:18.640Z,88.88
2017-12-06T05:21:46.146Z,88.29
2017-12-06T05:24:13.643Z,91.28
2017-12-06T05:26:41.135Z,91.78
2017-12-06T05:29:08.617Z,90.08
2017-12-06T05:31:36.109Z,88.30
2017-12-06T05:34:03.611Z,91.39
2017-12-06T05:36:31.116Z,91.12
2017-12-06T05:38:58.622Z,89.50
2017-12-06T05:41:26.110Z,90.43
2017-12-06T05:43:53.616Z,90.15
2017-12-06T05:46:21.112Z,90.84
2017-12-06T05:48:48.602Z,90.42
2017-12-06T05:51:16.087Z,89.53
2017-12-06T05:53:43.587Z,88.81
2017-12-06T05:56:11.086Z,91.90
2017-12-06T05:58:38.574Z,93.19
2017-12-06T06:01:06.100Z,92.91
2017-12-06T06:03:33.596Z,92.90
2017-12-06T06:06:01.103Z,93.36
2017-12-06T06:08:28.621Z,91.77
2017-12-06T06:10:56.100Z,92.07
2017-12-06T06:13:23.601Z,91.85
2017-12-06T06:15:51.158Z,90.19
2017-12-06T06:18:18.661Z,87.66
2017-12-06T06:20:46.185Z,88.30
2017-12-06T06:23:13.705Z,87.29
2017-12-06T06:25:41.228Z,86.25
2017-12-06T06:28:08.729Z,85.71
2017-12-06T06:30:36.254Z,87.55
2017-12-06T06:33:03.748Z,89.10
2017-12-06T06:35:31.252Z,90.61
2017-12-06T06:37:58.742Z,90.24
2017-12-06T06:40:26.231Z,89.40
2017-12-06T06:42:53.712Z,89.04
2017-12-06T06:45:21.224Z,88.38
2017-12-06T06:47:48.720Z,90.23
2017-12-06T06:50:16.233Z,89.04
2017-12-06T06:52:43.745Z,88.56
2017-12-06T06:55:11.285Z,90.05
2017-12-06T06:57:38.932Z,91.06
2017-12-06T07:00:06.433Z,89.27
2017-12-06T07:02:33.936Z,87.93
2017-12-06T07:05:01.449Z,86.07
2017-12-06T07:07:28.948Z,86.18
2017-12-06T07:09:56.435Z,85.45
2017-12-06T07:12:23.925Z,87.05
2017-12-06T07:14:51.446Z,84.92
2017-12-06T07:17:18.932Z,84.58
2017-12-06T07:19:49.260Z,83.84
2017-12-06T07:22:16.759Z,84.47
2017-12-06T07:24:44.259Z,84.07
2017-12-06T07:27:11.748Z,82.65
2017-12-06T07:29:39.260Z,82.92
2017-12-06T07:32:06.812Z,82.07
2017-12-06T07:34:34.300Z,82.46
2017-12-06T07:37:01.811Z,83.21
2017-12-06T07:39:29.302Z,83.04
2017-12-06T07:41:56.821Z,85.91
2017-12-06T07:44:24.313Z,85.96
2017-12-06T07:46:51.826Z,85.44
2017-12-06T07:49:19.336Z,84.42
2017-12-06T07:51:46.893Z,83.68
2017-12-06T07:54:14.405Z,83.63
2017-12-06T07:56:41.917Z,83.13
2017-12-06T07:59:09.439Z,82.88
2017-12-06T08:01:36.944Z,83.23
2017-12-06T08:04:04.439Z,82.94
2017-12-06T08:06:31.948Z,82.57
2017-12-06T08:08:59.468Z,82.78
2017-12-06T08:11:26.957Z,82.47
2017-12-06T08:13:54.460Z,82.48
2017-12-06T08:16:21.988Z,83.19
2017-12-06T08:18:49.477Z,83.25
2017-12-06T08:21:16.968Z,80.98
2017-12-06T08:23:44.471Z,82.62
2017-12-06T08:26:11.969Z,82.30
2017-12-06T08:28:39.464Z,81.82
2017-12-06T08:31:07.003Z,81.67
2017-12-06T08:33:34.493Z,80.09
2017-12-06T08:36:01.977Z,80.08
2017-12-06T08:38:29.475Z,80.31
2017-12-06T08:40:56.969Z,81.04
2017-12-06T08:43:24.476Z,81.73
2017-12-06T08:45:51.981Z,81.00
2017-12-06T08:48:19.476Z,80.69
2017-12-06T08:50:46.965Z,80.88
2017-12-06T08:53:14.465Z,81.05
2017-12-06T08:55:41.962Z,82.31
2017-12-06T08:58:09.456Z,80.58
2017-12-06T09:00:36.938Z,80.56
2017-12-06T09:03:04.485Z,80.14
2017-12-06T09:05:31.988Z,79.32
2017-12-06T09:07:59.485Z,78.30
2017-12-06T09:10:27.009Z,78.94
2017-12-06T09:12:54.547Z,78.91
2017-12-06T09:15:22.043Z,77.44
2017-12-06T09:17:49.571Z,78.10
2017-12-06T09:20:17.055Z,77.51
2017-12-06T09:22:44.550Z,77.59
2017-12-06T09:25:12.040Z,78.99
2017-12-06T09:27:39.567Z,77.86
2017-12-06T09:30:07.057Z,77.00
2017-12-06T09:32:34.540Z,76.26
2017-12-06T09:35:02.084Z,76.53
2017-12-06T09:37:29.599Z,75.49
2017-12-06T09:39:57.085Z,76.62
2017-12-06T09:42:24.570Z,74.91
2017-12-06T09:44:52.049Z,74.64
2017-12-06T09:47:19.552Z,76.11
2017-12-06T09:49:47.037Z,76.25
2017-12-06T09:52:14.516Z,74.16
2017-12-06T09:54:42.009Z,73.84
2017-12-06T09:57:09.501Z,74.94
2017-12-06T09:59:36.989Z,73.32
2017-12-06T10:02:04.473Z,73.57
2017-12-06T10:04:31.976Z,74.15
2017-12-06T10:06:59.506Z,75.36
2017-12-06T10:09:27.014Z,74.41
2017-12-06T10:11:54.499Z,73.80
2017-12-06T10:14:21.978Z,74.21
2017-12-06T10:16:49.481Z,73.83
2017-12-06T10:19:17.050Z,73.51
2017-12-06T10:21:44.551Z,73.49
2017-12-06T10:24:12.156Z,72.56
2017-12-06T10:26:39.669Z,73.78
2017-12-06T10:29:07.170Z,72.56
2017-12-06T10:31:34.673Z,72.39
2017-12-06T10:34:02.180Z,72.35
2017-12-06T10:36:29.674Z,72.83
2017-12-06T10:38:57.160Z,71.73
2017-12-06T10:41:24.659Z,72.64
2017-12-06T10:43:52.161Z,72.84
2017-12-06T10:46:19.641Z,73.20
2017-12-06T10:48:47.132Z,73.54
2017-12-06T10:51:14.620Z,73.86
2017-12-06T10:53:42.152Z,72.30
2017-12-06T10:56:09.634Z,73.80
2017-12-06T10:58:37.112Z,73.14
2017-12-06T11:01:04.613Z,72.77
2017-12-06T11:03:32.105Z,72.77
2017-12-06T11:05:59.634Z,73.07
2017-12-06T11:08:27.172Z,72.75
2017-12-06T11:10:54.776Z,72.88
2017-12-06T11:13:22.252Z,73.58
2017-12-06T11:15:49.793Z,72.54
2017-12-06T11:18:17.286Z,72.57
2017-12-06T11:20:44.776Z,74.42
2017-12-06T11:23:12.269Z,74.18
2017-12-06T11:25:39.786Z,72.52
2017-12-06T11:28:07.274Z,73.16
2017-12-06T11:30:34.775Z,71.63
2017-12-06T11:33:02.275Z,71.28
2017-12-06T11:35:29.786Z,70.57
2017-12-06T11:37:57.323Z,71.66
2017-12-06T11:40:24.822Z,74.21
2017-12-06T11:42:52.312Z,73.14
2017-12-06T11:45:19.810Z,72.57
2017-12-06T11:47:47.297Z,71.35
2017-12-06T11:50:14.784Z,71.93
2017-12-06T11:52:42.281Z,72.33
2017-12-06T11:55:09.786Z,72.27
2017-12-06T11:57:37.272Z,72.63
2017-12-06T12:00:04.757Z,71.50
2017-12-06T12:02:32.261Z,73.42
2017-12-06T12:04:59.824Z,71.82
2017-12-06T12:07:27.389Z,71.32
2017-12-06T12:09:54.878Z,72.49
2017-12-06T12:12:22.393Z,72.26
2017-12-06T12:14:49.934Z,71.70
2017-12-06T12:17:17.444Z,70.44
2017-12-06T12:19:44.940Z,71.98
2017-12-06T12:22:12.428Z,72.29
2017-12-06T12:24:39.908Z,73.32
2017-12-06T12:27:07.407Z,74.12
2017-12-06T12:29:34.903Z,73.41
2017-12-06T12:32:02.400Z,71.60
2017-12-06T12:34:29.900Z,71.32
2017-12-06T12:36:57.397Z,71.33
2017-12-06T12:39:24.893Z,71.58
2017-12-06T12:41:52.369Z,72.26
2017-12-06T12:44:19.860Z,73.12
2017-12-06T12:46:47.359Z,73.20
2017-12-06T12:49:14.881Z,72.97
2017-12-06T12:51:42.365Z,72.22
2017-12-06T12:54:09.891Z,73.40
2017-12-06T12:56:37.369Z,73.53
2017-12-06T12:59:04.857Z,72.80
2017-12-06T13:01:32.345Z,71.27
2017-12-06T13:04:00.009Z,71.93
2017-12-06T13:06:27.516Z,71.72
2017-12-06T13:08:55.013Z,72.70
2017-12-06T13:11:23.125Z,71.37
2017-12-06T13:13:50.625Z,70.70
2017-12-06T13:16:18.130Z,71.78
2017-12-06T13:18:45.615Z,71.22
2017-12-06T13:21:13.097Z,71.64
2017-12-06T13:23:40.597Z,69.75
2017-12-06T13:26:08.113Z,71.64
2017-12-06T13:28:35.723Z,71.47
2017-12-06T13:31:03.257Z,72.19
2017-12-06T13:33:30.736Z,72.32
2017-12-06T13:35:58.224Z,71.62
2017-12-06T13:38:25.709Z,70.82
2017-12-06T13:40:53.225Z,71.23
2017-12-06T13:43:20.701Z,71.23
2017-12-06T13:45:48.183Z,70.71
2017-12-06T13:48:15.682Z,70.51
2017-12-06T13:50:43.198Z,70.85
2017-12-06T13:53:10.709Z,71.43
2017-12-06T13:55:38.210Z,69.99
2017-12-06T13:58:05.704Z,71.55
2017-12-06T14:00:33.381Z,72.58
2017-12-06T14:03:00.917Z,72.99
2017-12-06T14:05:28.413Z,74.09
2017-12-06T14:07:55.989Z,71.29
2017-12-06T14:10:23.548Z,73.64
2017-12-06T14:12:51.037Z,73.76
2017-12-06T14:15:18.524Z,71.93
2017-12-06T14:17:46.027Z,72.51
2017-12-06T14:20:13.516Z,73.35
2017-12-06T14:22:41.033Z,72.67
2017-12-06T14:25:08.513Z,72.79
2017-12-06T14:27:36.002Z,73.15
2017-12-06T14:30:03.498Z,72.95
2017-12-06T14:32:30.980Z,73.32
2017-12-06T14:34:58.509Z,72.96
2017-12-06T14:37:26.000Z,73.71
2017-12-06T14:39:53.613Z,72.85
2017-12-06T14:42:21.157Z,71.25
2017-12-06T14:44:48.644Z,75.06
2017-12-06T14:47:16.151Z,73.80
2017-12-06T14:49:43.679Z,73.48
2017-12-06T14:52:11.204Z,73.73
2017-12-06T14:54:38.701Z,73.72
2017-12-06T14:57:06.222Z,74.34
2017-12-06T14:59:33.721Z,74.14
2017-12-06T15:02:01.210Z,75.39
2017-12-06T15:04:28.693Z,75.58
2017-12-06T15:06:56.193Z,74.54
2017-12-06T15:09:23.700Z,74.43
2017-12-06T15:11:52.290Z,74.79
2017-12-06T15:14:19.785Z,74.28
2017-12-06T15:16:47.277Z,75.58
2017-12-06T15:19:14.770Z,75.53
2017-12-06T15:21:42.360Z,75.79
2017-12-06T15:24:09.865Z,74.52
2017-12-06T15:26:37.358Z,76.65
2017-12-06T15:29:04.838Z,75.63
2017-12-06T15:31:32.371Z,75.77
2017-12-06T15:33:59.860Z,74.31
2017-12-06T15:36:27.378Z,75.82
2017-12-06T15:38:54.872Z,74.08
2017-12-06T15:41:22.401Z,75.04
2017-12-06T15:43:49.988Z,75.44
2017-12-06T15:46:17.492Z,76.40
2017-12-06T15:48:45.134Z,76.17
2017-12-06T15:51:12.636Z,77.33
2017-12-06T15:53:40.230Z,80.40
2017-12-06T15:56:07.719Z,76.71
2017-12-06T15:58:35.199Z,80.34
2017-12-06T16:01:02.688Z,79.75
2017-12-06T16:03:30.173Z,75.77
2017-12-06T16:05:57.685Z,74.47
2017-12-06T16:08:25.182Z,73.86
2017-12-06T16:10:52.660Z,76.76
2017-12-06T16:13:20.191Z,80.44
2017-12-06T16:15:47.897Z,81.22
2017-12-06T16:18:15.419Z,81.77
2017-12-06T16:20:42.936Z,82.97
2017-12-06T16:23:10.465Z,84.44
2017-12-06T16:25:38.000Z,81.21
2017-12-06T16:28:05.536Z,83.62
2017-12-06T16:30:33.038Z,82.55
2017-12-06T16:33:00.589Z,83.36
2017-12-06T16:35:39.970Z,85.80
2017-12-06T16:38:07.511Z,83.42
2017-12-06T16:40:35.018Z,82.49
2017-12-06T16:43:02.511Z,83.11
2017-12-06T16:45:31.339Z,78.10
2017-12-06T16:47:58.852Z,78.20
2017-12-06T16:50:26.359Z,82.15
2017-12-06T16:52:53.853Z,76.05
2017-12-06T16:55:21.352Z,76.59
2017-12-06T16:57:48.842Z,76.50
2017-12-06T17:00:16.335Z,75.76
2017-12-06T17:02:43.845Z,77.92
2017-12-06T17:05:11.342Z,77.53
2017-12-06T17:07:38.945Z,77.14
2017-12-06T17:10:06.462Z,75.80
2017-12-06T17:12:34.009Z,80.60
2017-12-06T17:15:01.546Z,78.88
2017-12-06T17:17:29.156Z,77.97
2017-12-06T17:19:56.697Z,79.52
2017-12-06T17:22:24.273Z,80.64
2017-12-06T17:24:51.758Z,79.72
2017-12-06T17:27:19.265Z,79.60
2017-12-06T17:29:58.825Z,78.49
2017-12-06T17:32:26.336Z,79.98
2017-12-06T17:34:53.829Z,78.72
2017-12-06T17:37:21.345Z,76.48
2017-12-06T17:39:48.838Z,76.98
2017-12-06T17:42:16.376Z,78.62
2017-12-06T17:44:43.870Z,82.34
2017-12-06T17:47:11.362Z,79.61
2017-12-06T17:49:38.846Z,78.07
2017-12-06T17:52:06.346Z,76.92
2017-12-06T17:54:33.885Z,76.89
2017-12-06T17:57:01.375Z,75.75
2017-12-06T17:59:28.895Z,74.98
2017-12-06T18:01:56.392Z,81.04
2017-12-06T18:04:23.909Z,76.21
2017-12-06T18:06:51.417Z,75.52
2017-12-06T18:09:18.933Z,75.93
2017-12-06T18:11:46.444Z,76.61
2017-12-06T18:14:14.046Z,75.62
2017-12-06T18:16:41.558Z,75.63
2017-12-06T18:19:09.089Z,76.80
2017-12-06T18:21:36.612Z,76.97
2017-12-06T18:24:04.133Z,75.82
2017-12-06T18:26:31.667Z,76.43
2017-12-06T18:28:59.174Z,76.71
2017-12-06T18:31:26.710Z,76.73
2017-12-06T18:33:54.212Z,76.82
2017-12-06T18:36:21.742Z,76.54
2017-12-06T18:38:49.251Z,82.25
2017-12-06T18:41:16.859Z,80.17
2017-12-06T18:43:44.346Z,75.74
2017-12-06T18:46:11.848Z,74.20
2017-12-06T18:48:39.365Z,73.88
2017-12-06T18:51:06.862Z,75.77
2017-12-06T18:53:34.370Z,75.40
2017-12-06T18:56:01.891Z,74.62
2017-12-06T18:58:29.390Z,75.86
2017-12-06T19:00:56.876Z,75.78
2017-12-06T19:03:24.390Z,75.28
2017-12-06T19:05:51.880Z,74.99
2017-12-06T19:08:19.382Z,76.94
2017-12-06T19:10:46.877Z,77.21
2017-12-06T19:13:14.387Z,74.58
2017-12-06T19:15:41.939Z,75.32
2017-12-06T19:18:09.451Z,76.19
2017-12-06T19:20:36.965Z,75.16
2017-12-06T19:23:04.483Z,74.24
2017-12-06T19:25:32.111Z,75.15
2017-12-06T19:27:59.627Z,75.30
2017-12-06T19:30:27.141Z,75.25
2017-12-06T19:32:54.655Z,75.81
2017-12-06T19:35:22.169Z,76.41
2017-12-06T19:37:49.694Z,76.29
2017-12-06T19:40:17.200Z,76.95
2017-12-06T19:42:44.701Z,77.57
2017-12-06T19:45:12.271Z,77.08
2017-12-06T19:47:39.794Z,77.11
2017-12-06T19:50:07.319Z,75.23
2017-12-06T19:52:34.811Z,76.86
2017-12-06T19:55:02.337Z,75.96
2017-12-06T19:57:29.866Z,77.93
2017-12-06T19:59:57.367Z,82.34
2017-12-06T20:02:24.928Z,84.89
2017-12-06T20:04:52.467Z,80.18
2017-12-06T20:07:19.960Z,82.57
2017-12-06T20:09:47.729Z,83.26
2017-12-06T20:12:15.309Z,80.40
2017-12-06T20:14:42.862Z,79.89
2017-12-06T20:17:10.425Z,77.94
2017-12-06T20:19:37.960Z,76.46
2017-12-06T20:22:05.457Z,78.42
2017-12-06T20:24:33.008Z,76.98
2017-12-06T20:27:00.527Z,77.64
2017-12-06T20:29:28.102Z,83.94
2017-12-06T20:31:55.819Z,80.51
2017-12-06T20:34:23.333Z,84.33
2017-12-06T20:36:51.020Z,84.61
2017-12-06T20:39:18.525Z,82.19
2017-12-06T20:41:46.050Z,79.96
2017-12-06T20:44:13.561Z,80.43
2017-12-06T20:46:41.249Z,84.20
2017-12-06T20:49:08.817Z,85.40
2017-12-06T20:51:37.083Z,83.73
2017-12-06T20:54:04.700Z,84.35
2017-12-06T20:56:32.240Z,82.71
2017-12-06T20:59:00.060Z,81.12
2017-12-06T21:01:27.611Z,80.89
2017-12-06T21:03:55.097Z,81.82
2017-12-06T21:06:22.842Z,81.45
2017-12-06T21:08:50.479Z,81.22
2017-12-06T21:11:17.997Z,81.82
2017-12-06T21:13:45.516Z,81.16
2017-12-06T21:16:13.024Z,81.70
2017-12-06T21:18:40.507Z,82.23
2017-12-06T21:21:08.003Z,82.34
2017-12-06T21:23:35.570Z,81.14
2017-12-06T21:26:03.086Z,81.10
2017-12-06T21:28:30.627Z,80.72
2017-12-06T21:31:00.137Z,81.98
2017-12-06T21:33:27.781Z,81.89
2017-12-06T21:35:55.294Z,81.35
2017-12-06T21:38:22.922Z,80.23
2017-12-06T21:40:50.434Z,80.66
2017-12-06T21:43:17.934Z,80.21
2017-12-06T21:45:45.460Z,79.90
2017-12-06T21:48:12.983Z,81.19
2017-12-06T21:50:40.520Z,81.69
2017-12-06T21:53:08.216Z,80.66
2017-12-06T21:55:35.743Z,80.16
2017-12-06T21:58:03.261Z,80.07
2017-12-06T22:00:30.861Z,79.55
2017-12-06T22:02:58.370Z,80.89
2017-12-06T22:05:26.013Z,81.48
2017-12-06T22:07:53.603Z,80.86
2017-12-06T22:10:21.143Z,81.85
2017-12-06T22:12:48.793Z,81.50
2017-12-06T22:15:16.391Z,81.83
2017-12-06T22:17:43.910Z,82.64
2017-12-06T22:20:11.412Z,82.47
2017-12-06T22:22:38.922Z,82.18
2017-12-06T22:25:06.434Z,80.93
2017-12-06T22:27:33.922Z,81.88
2017-12-06T22:30:01.410Z,82.45
2017-12-06T22:32:28.925Z,83.20
2017-12-06T22:34:56.425Z,82.81
2017-12-06T22:37:23.922Z,83.37
2017-12-06T22:39:51.410Z,82.27
2017-12-06T22:42:18.984Z,82.09
2017-12-06T22:44:58.490Z,82.86
2017-12-06T22:47:26.172Z,82.58
2017-12-06T22:49:53.838Z,82.77
2017-12-06T22:52:21.415Z,82.92
2017-12-06T22:54:48.933Z,82.83
2017-12-06T22:57:16.434Z,82.64
2017-12-06T22:59:43.918Z,81.51
2017-12-06T23:02:11.473Z,80.48
2017-12-06T23:04:39.011Z,81.93
2017-12-06T23:07:07.382Z,81.94
2017-12-06T23:09:34.899Z,82.68
2017-12-06T23:12:02.401Z,82.63
2017-12-06T23:14:29.897Z,80.91
2017-12-06T23:16:57.414Z,83.03
2017-12-06T23:19:24.905Z,83.92
2017-12-06T23:21:52.433Z,83.03
2017-12-06T23:24:19.928Z,82.78
2017-12-06T23:26:47.436Z,83.65
2017-12-06T23:29:15.057Z,82.51
2017-12-06T23:31:42.557Z,83.65
2017-12-06T23:34:10.068Z,82.53
2017-12-06T23:36:37.552Z,83.95
2017-12-06T23:39:05.084Z,82.74
2017-12-06T23:41:32.601Z,82.84
2017-12-06T23:44:00.243Z,84.26
2017-12-06T23:46:27.737Z,83.41
2017-12-06T23:48:55.227Z,81.05
2017-12-06T23:51:22.755Z,80.30
2017-12-06T23:53:50.258Z,79.84
2017-12-06T23:56:17.793Z,80.80
2017-12-06T23:58:45.299Z,82.07
